Strona główna
METAR-TAF:

METAR-TAF

Lotnisko :

Port lotniczy Palembang

Palembang, Indonezja

Szerokość geograficzna: 02-54S, Długość geograficzna: 104-42E, wysokość: 10 m

Aktualna obserwacja pogody

Raport powstał 1 godzina i 8 minut temu, godzina 09:30 UTC
Wiatr 5 kt od północny wschód
Temperatura 28°C
Wilgotność 89%
Ciśnienie 1008 hPa
Widzialność 10 km lub więcej
Mało chmury na wysokości 1000 ft, Cumulonimbus.
Przerywane chmury na wysokości 1200 ft

METAR: WIPP 140930Z 04005KT 9999 FEW010CB BKN012 28/26 Q1008 RMK CB TOW AND NE

czas: 17:38 (10:38 UTC)

Prognoza

Raport powstał 5 godziny i 38 minut temu, godzina 05:00 UTC
Prognoza ważna od 14 godzina 06 UTC do 15 godzina 06 UTC
Wiatr 8 kt od zachodnio-północny zachód
Widzialność 10 km lub więcej
Przerywane chmury na wysokości 1000 ft
Przejściowo
od 14 godzina 06 UTC do 14 godzina 10 UTC
Widzialność: 3000 m
Mało chmury na wysokości 1000 ft, Cumulonimbus.
burza, deszcz

TAF: WIPP 140500Z 1406/1506 30008KT 9999 BKN010 TEMPO 1406/1410 3000 TSRA FEW010CB

Obserwacja i prognoza pogody dla ponad 4000 lotnisk (raport METAR i TAF).

Dostępne stacje oznaczono żółtymi i czerwonymi punktami na mapie.

Najedź kursorem aby zobaczyć nazwę stacji.

Kliknij aby zobaczyć obserwacje i prognozy pogody.

Aby zmienić mapę: kliknij na zielony przycisk z czarnym krzyżykiem, aby powiększyć; na zielony przycisk z myślnikiem, aby pomniejszyć; na zielone strzałki, aby przejść do map sąsiednich.


METAR-TAF: